Huvudsida
METAR-TAF:

METAR-TAF

Flygplatser :

Vanua Lava, Vanuatu

latitud: 13-51-06S, longitud: 167-32-13E, höjd: 2 m

Aktuellt väderrapport

Denna rapport gjordes för 15 timmar och 11 minuter sedan, klockan 06:00 UTC
Vind 19 kt från ost/sydost
Temperatur 28°C
Fuktighet 74%
Tryck 1011 hPa
Sikt 10 km eller mer
Spridda moln på en höjd av 2000 ft

METAR: NVSC 210600Z 11019KT 9999 SCT020 28/23 Q1011

Tid: 08:11 (21:11 UTC)

Väderprognos

Denna rapport gjordes för 5 timmar och 11 minuter sedan, klockan 16:00 UTC
Prognos gäller från 21 kl. 18 UTC till 22 kl. 18 UTC
Vind 15 kt från ost/sydost
Sikt: 9000 m
Spridda moln på en höjd av 2000 ft
Brutna moln på en höjd av 1800 ft
lätta regnskurar

TAF: NVSC 211600Z 2118/2218 12015KT 9999 SCT020 INTER 2118/2124 9000 -SHRA BKN018

Aktuella väderrapporter och prognoser från 4000 flygplatser (METAR- och TAF-rapporter).

De tillgängliga stationerna syns som gula och röda prickar på kartan.

För musen över prickarna för att se namnen på stationerna.

Klicka sedan för att få väderrapporter och prognoser.

För att ändra kartan: Klicka på de gröna knapparna med ett svart kors på för att zooma in; den gröna knappen med ett streck på för att zooma ut; eller på de gröna pilarna för angränsande kartor.


METAR-TAF: